createdAt,value
2016-04-16T00:00:19.430Z,0
2016-04-16T00:01:19.433Z,0
2016-04-16T00:02:19.421Z,0
2016-04-16T00:03:19.455Z,0
2016-04-16T00:04:19.458Z,0
2016-04-16T00:05:19.460Z,0
2016-04-16T00:06:19.447Z,0
2016-04-16T00:07:19.293Z,0
2016-04-16T00:08:19.437Z,0
2016-04-16T00:09:19.455Z,0
2016-04-16T00:10:19.426Z,0
2016-04-16T00:11:32.179Z,0
2016-04-16T00:12:25.712Z,0
2016-04-16T00:13:19.450Z,0
2016-04-16T00:14:19.468Z,0
2016-04-16T00:15:19.409Z,0
2016-04-16T00:16:19.427Z,0
2016-04-16T00:17:32.212Z,0
2016-04-16T00:18:19.448Z,0
2016-04-16T00:19:19.420Z,0
2016-04-16T00:20:19.437Z,0
2016-04-16T00:21:19.472Z,0
2016-04-16T00:22:19.459Z,0
2016-04-16T00:23:19.446Z,0
2016-04-16T00:24:19.449Z,0
2016-04-16T00:25:19.451Z,0
2016-04-16T00:26:19.454Z,0
2016-04-16T00:27:19.441Z,0
2016-04-16T00:28:19.444Z,0
2016-04-16T00:29:19.447Z,0
2016-04-16T00:30:19.449Z,0
2016-04-16T00:31:19.452Z,0
2016-04-16T00:32:19.438Z,0
2016-04-16T00:33:19.472Z,0
2016-04-16T00:34:19.444Z,0
2016-04-16T00:35:19.431Z,0
2016-04-16T00:36:19.450Z,0
2016-04-16T00:37:18.718Z,0
2016-04-16T00:38:19.502Z,0
2016-04-16T00:39:32.191Z,0
2016-04-16T00:40:19.460Z,0
2016-04-16T00:41:19.463Z,0
2016-04-16T00:42:19.465Z,0
2016-04-16T00:43:19.452Z,0
2016-04-16T00:44:19.454Z,0
2016-04-16T00:45:19.442Z,0
2016-04-16T00:46:32.164Z,0
2016-04-16T00:47:19.448Z,0
2016-04-16T00:48:19.435Z,0
2016-04-16T00:49:19.469Z,0
2016-04-16T00:50:19.503Z,0
2016-04-16T00:51:19.428Z,0
2016-04-16T00:52:19.445Z,0
2016-04-16T00:53:19.434Z,0
2016-04-16T00:54:32.186Z,0
2016-04-16T00:55:19.454Z,0
2016-04-16T00:56:19.301Z,0
2016-04-16T00:57:19.459Z,0
2016-04-16T00:58:19.447Z,0
2016-04-16T00:59:32.183Z,0
2016-04-16T01:00:19.452Z,0
2016-04-16T01:01:32.172Z,0
2016-04-16T01:02:19.457Z,0
2016-04-16T01:03:19.663Z,0
2016-04-16T01:04:19.463Z,0
2016-04-16T01:05:19.512Z,0
2016-04-16T01:06:19.436Z,0
2016-04-16T01:07:19.424Z,0
2016-04-16T01:08:19.441Z,0
2016-04-16T01:09:19.476Z,0
2016-04-16T01:10:19.447Z,0
2016-04-16T01:11:19.496Z,0
2016-04-16T01:12:19.437Z,0
2016-04-16T01:13:19.454Z,0
2016-04-16T01:14:25.724Z,0
2016-04-16T01:15:19.429Z,0
2016-04-16T01:16:19.479Z,0
2016-04-16T01:17:19.481Z,0
2016-04-16T01:18:19.437Z,0
2016-04-16T01:19:25.737Z,0
2016-04-16T01:20:19.536Z,0
2016-04-16T01:21:19.477Z,0
2016-04-16T01:22:19.448Z,0
2016-04-16T01:23:19.451Z,0
2016-04-16T01:24:19.484Z,0
2016-04-16T01:25:32.190Z,0
2016-04-16T01:26:19.692Z,0
2016-04-16T01:27:19.445Z,0
2016-04-16T01:28:19.480Z,0
2016-04-16T01:29:19.467Z,0
2016-04-16T01:30:19.453Z,0
2016-04-16T01:31:19.456Z,0
2016-04-16T01:32:19.444Z,0
2016-04-16T01:33:19.461Z,0
2016-04-16T01:34:19.449Z,0
2016-04-16T01:35:32.202Z,0
2016-04-16T01:36:19.438Z,0
2016-04-16T01:37:19.457Z,0
2016-04-16T01:38:19.444Z,0
2016-04-16T01:39:19.462Z,0
2016-04-16T01:40:19.293Z,0
2016-04-16T01:41:19.483Z,0
2016-04-16T01:42:19.454Z,0
2016-04-16T01:43:32.176Z,0
2016-04-16T01:44:19.445Z,0
2016-04-16T01:45:19.463Z,0
2016-04-16T01:46:19.466Z,0
2016-04-16T01:47:19.454Z,0
2016-04-16T01:48:19.440Z,0
2016-04-16T01:49:19.443Z,0
2016-04-16T01:50:19.664Z,0
2016-04-16T01:51:20.057Z,0
2016-04-16T01:52:19.434Z,0
2016-04-16T01:53:19.437Z,0
2016-04-16T01:54:19.440Z,0
2016-04-16T01:55:19.443Z,0
2016-04-16T01:56:19.446Z,0
2016-04-16T01:57:19.433Z,0
2016-04-16T01:58:19.451Z,0
2016-04-16T01:59:19.469Z,0
2016-04-16T02:00:19.456Z,0
2016-04-16T02:01:19.443Z,0
2016-04-16T02:02:32.164Z,0
2016-04-16T02:03:19.421Z,0
2016-04-16T02:04:19.423Z,0
2016-04-16T02:05:19.567Z,0
2016-04-16T02:06:19.476Z,0
2016-04-16T02:07:19.448Z,0
2016-04-16T02:08:19.434Z,0
2016-04-16T02:09:19.437Z,0
2016-04-16T02:10:19.440Z,0
2016-04-16T02:11:19.443Z,0
2016-04-16T02:12:19.431Z,0
2016-04-16T02:13:19.464Z,0
2016-04-16T02:14:19.451Z,0
2016-04-16T02:15:19.453Z,0
2016-04-16T02:16:19.441Z,0
2016-04-16T02:17:19.443Z,0
2016-04-16T02:18:19.446Z,0
2016-04-16T02:19:19.449Z,0
2016-04-16T02:20:32.311Z,0
2016-04-16T02:21:19.469Z,0
2016-04-16T02:22:19.444Z,0
2016-04-16T02:23:19.430Z,0
2016-04-16T02:24:19.449Z,0
2016-04-16T02:25:19.435Z,0
2016-04-16T02:26:19.454Z,0
2016-04-16T02:27:19.457Z,0
2016-04-16T02:28:19.459Z,0
2016-04-16T02:29:19.432Z,0
2016-04-16T02:30:19.434Z,0
2016-04-16T02:31:19.437Z,0
2016-04-16T02:32:19.439Z,0
2016-04-16T02:33:32.082Z,0
2016-04-16T02:34:19.444Z,0
2016-04-16T02:35:19.603Z,0
2016-04-16T02:36:19.434Z,0
2016-04-16T02:37:19.437Z,0
2016-04-16T02:38:19.471Z,0
2016-04-16T02:39:19.458Z,0
2016-04-16T02:40:19.445Z,0
2016-04-16T02:41:19.463Z,0
2016-04-16T02:42:32.153Z,0
2016-04-16T02:43:32.202Z,0
2016-04-16T02:44:19.481Z,0
2016-04-16T02:45:19.527Z,0
2016-04-16T02:46:19.587Z,0
2016-04-16T02:47:19.602Z,0
2016-04-16T02:48:19.647Z,0
2016-04-16T02:49:19.666Z,0
2016-04-16T02:50:19.731Z,0
2016-04-16T02:51:19.686Z,0
2016-04-16T02:52:32.470Z,0
2016-04-16T02:53:32.458Z,0
2016-04-16T02:54:19.731Z,0
2016-04-16T02:55:19.724Z,0
2016-04-16T02:56:19.748Z,0
2016-04-16T02:57:19.741Z,0
2016-04-16T02:58:32.467Z,0
2016-04-16T02:59:19.754Z,0
2016-04-16T03:00:19.790Z,0
2016-04-16T03:01:19.778Z,0
2016-04-16T03:02:19.753Z,0
2016-04-16T03:03:19.757Z,0
2016-04-16T03:04:32.494Z,0
2016-04-16T03:05:19.795Z,0
2016-04-16T03:06:19.798Z,0
2016-04-16T03:07:19.771Z,0
2016-04-16T03:08:19.805Z,0
2016-04-16T03:09:19.761Z,0
2016-04-16T03:10:19.796Z,0
2016-04-16T03:11:19.784Z,0
2016-04-16T03:12:19.771Z,0
2016-04-16T03:13:19.774Z,0
2016-04-16T03:14:19.776Z,0
2016-04-16T03:15:32.514Z,0
2016-04-16T03:16:19.767Z,0
2016-04-16T03:17:19.769Z,0
2016-04-16T03:18:19.756Z,0
2016-04-16T03:19:19.805Z,0
2016-04-16T03:20:19.778Z,0
2016-04-16T03:21:19.795Z,0
2016-04-16T03:22:19.814Z,0
2016-04-16T03:23:19.800Z,0
2016-04-16T03:24:19.788Z,0
2016-04-16T03:25:19.759Z,0
2016-04-16T03:26:19.762Z,0
2016-04-16T03:27:32.515Z,0
2016-04-16T03:28:19.783Z,0
2016-04-16T03:29:19.849Z,0
2016-04-16T03:30:19.757Z,0
2016-04-16T03:31:19.760Z,0
2016-04-16T03:32:19.747Z,0
2016-04-16T03:33:32.515Z,0
2016-04-16T03:34:19.768Z,0
2016-04-16T03:35:19.739Z,0
2016-04-16T03:36:19.773Z,0
2016-04-16T03:37:19.776Z,0
2016-04-16T03:38:19.779Z,0
2016-04-16T03:39:19.828Z,0
2016-04-16T03:40:19.831Z,0
2016-04-16T03:41:19.756Z,0
2016-04-16T03:42:32.539Z,0
2016-04-16T03:43:19.762Z,0
2016-04-16T03:44:19.764Z,0
2016-04-16T03:45:19.751Z,0
2016-04-16T03:46:19.753Z,0
2016-04-16T03:47:19.756Z,0
2016-04-16T03:48:19.775Z,0
2016-04-16T03:49:19.745Z,0
2016-04-16T03:50:19.748Z,0
2016-04-16T03:51:19.766Z,0
2016-04-16T03:52:19.770Z,0
2016-04-16T03:53:19.772Z,0
2016-04-16T03:54:19.759Z,0
2016-04-16T03:55:19.761Z,0
2016-04-16T03:56:19.764Z,0
2016-04-16T03:57:19.767Z,0
2016-04-16T03:58:32.504Z,0
2016-04-16T03:59:19.757Z,0
2016-04-16T04:00:19.790Z,0
2016-04-16T04:01:19.777Z,0
2016-04-16T04:02:19.780Z,0
2016-04-16T04:03:19.768Z,0
2016-04-16T04:04:19.755Z,0
2016-04-16T04:05:19.773Z,0
2016-04-16T04:06:19.776Z,0
2016-04-16T04:07:32.528Z,0
2016-04-16T04:08:19.765Z,0
2016-04-16T04:09:19.784Z,0
2016-04-16T04:10:19.756Z,0
2016-04-16T04:11:19.743Z,0
2016-04-16T04:12:19.776Z,0
2016-04-16T04:13:19.764Z,0
2016-04-16T04:14:19.766Z,0
2016-04-16T04:15:19.784Z,0
2016-04-16T04:16:19.740Z,0
2016-04-16T04:17:32.508Z,0
2016-04-16T04:18:21.167Z,0
2016-04-16T04:19:19.795Z,0
2016-04-16T04:20:19.783Z,0
2016-04-16T04:21:19.786Z,0
2016-04-16T04:22:19.756Z,0
2016-04-16T04:23:19.775Z,0
2016-04-16T04:24:19.777Z,0
2016-04-16T04:25:19.858Z,0
2016-04-16T04:26:19.860Z,0
2016-04-16T04:27:19.847Z,0
2016-04-16T04:28:19.757Z,0
2016-04-16T04:29:32.494Z,0
2016-04-16T04:30:19.778Z,0
2016-04-16T04:31:19.780Z,0
2016-04-16T04:32:19.799Z,0
2016-04-16T04:33:19.801Z,0
2016-04-16T04:34:19.789Z,0
2016-04-16T04:35:19.776Z,0
2016-04-16T04:36:19.779Z,0
2016-04-16T04:37:19.735Z,5
2016-04-16T04:38:19.612Z,5
2016-04-16T04:39:19.787Z,5
2016-04-16T04:40:19.757Z,5
2016-04-16T04:41:32.526Z,5
2016-04-16T04:42:19.762Z,5
2016-04-16T04:43:19.782Z,5
2016-04-16T04:44:19.768Z,5
2016-04-16T04:45:19.803Z,5
2016-04-16T04:46:19.743Z,5
2016-04-16T04:47:19.745Z,5
2016-04-16T04:48:19.764Z,5
2016-04-16T04:49:19.766Z,5
2016-04-16T04:50:19.769Z,5
2016-04-16T04:51:19.772Z,5
2016-04-16T04:52:19.759Z,10
2016-04-16T04:53:19.762Z,5
2016-04-16T04:54:26.014Z,5
2016-04-16T04:55:19.752Z,5
2016-04-16T04:56:19.769Z,5
2016-04-16T04:57:19.788Z,5
2016-04-16T04:58:19.743Z,5
2016-04-16T04:59:19.747Z,5
2016-04-16T05:00:32.530Z,5
2016-04-16T05:01:19.768Z,5
2016-04-16T05:02:19.755Z,10
2016-04-16T05:03:19.757Z,10
2016-04-16T05:04:19.791Z,10
2016-04-16T05:05:19.778Z,15
2016-04-16T05:06:19.749Z,15
2016-04-16T05:07:19.737Z,15
2016-04-16T05:08:19.758Z,15
2016-04-16T05:09:19.838Z,15
2016-04-16T05:10:32.498Z,15
2016-04-16T05:11:26.047Z,10
2016-04-16T05:12:19.785Z,10
2016-04-16T05:13:39.053Z,10
2016-04-16T05:14:19.759Z,10
2016-04-16T05:15:19.762Z,10
2016-04-16T05:16:19.779Z,10
2016-04-16T05:17:19.766Z,10
2016-04-16T05:18:19.753Z,10
2016-04-16T05:19:19.756Z,10
2016-04-16T05:20:19.759Z,10
2016-04-16T05:21:19.762Z,10
2016-04-16T05:22:19.749Z,10
2016-04-16T05:23:19.798Z,10
2016-04-16T05:24:19.786Z,10
2016-04-16T05:25:19.773Z,15
2016-04-16T05:26:19.791Z,15
2016-04-16T05:27:19.761Z,20
2016-04-16T05:28:19.625Z,20
2016-04-16T05:29:32.502Z,20
2016-04-16T05:30:19.786Z,20
2016-04-16T05:31:19.789Z,20
2016-04-16T05:32:19.792Z,20
2016-04-16T05:33:19.778Z,20
2016-04-16T05:34:19.765Z,20
2016-04-16T05:35:19.768Z,20
2016-04-16T05:36:19.755Z,20
2016-04-16T05:37:19.789Z,20
2016-04-16T05:38:19.745Z,20
2016-04-16T05:39:19.763Z,20
2016-04-16T05:40:19.813Z,20
2016-04-16T05:41:22.800Z,20
2016-04-16T05:42:19.771Z,15
2016-04-16T05:43:19.790Z,15
2016-04-16T05:44:19.761Z,15
2016-04-16T05:45:19.764Z,20
2016-04-16T05:46:19.782Z,20
2016-04-16T05:47:19.753Z,20
2016-04-16T05:48:19.788Z,20
2016-04-16T05:49:19.806Z,20
2016-04-16T05:50:19.778Z,20
2016-04-16T05:51:32.545Z,20
2016-04-16T05:52:26.048Z,25
2016-04-16T05:53:19.801Z,25
2016-04-16T05:54:19.788Z,25
2016-04-16T05:55:19.775Z,25
2016-04-16T05:56:19.778Z,25
2016-04-16T05:57:19.796Z,25
2016-04-16T05:58:19.814Z,25
2016-04-16T05:59:19.785Z,25
2016-04-16T06:00:19.805Z,30
2016-04-16T06:01:19.775Z,30
2016-04-16T06:02:19.794Z,30
2016-04-16T06:03:19.796Z,30
2016-04-16T06:04:19.799Z,30
2016-04-16T06:05:32.536Z,30
2016-04-16T06:06:19.804Z,25
2016-04-16T06:07:19.791Z,25
2016-04-16T06:08:19.701Z,20
2016-04-16T06:09:19.796Z,20
2016-04-16T06:10:19.799Z,20
2016-04-16T06:11:19.787Z,20
2016-04-16T06:12:19.790Z,20
2016-04-16T06:13:19.808Z,20
2016-04-16T06:14:19.810Z,20
2016-04-16T06:15:19.798Z,15
2016-04-16T06:16:19.801Z,15
2016-04-16T06:17:19.804Z,15
2016-04-16T06:18:32.540Z,15
2016-04-16T06:19:19.809Z,15
2016-04-16T06:20:19.811Z,15
2016-04-16T06:21:19.720Z,15
2016-04-16T06:22:19.831Z,15
2016-04-16T06:23:19.804Z,15
2016-04-16T06:24:19.806Z,15
2016-04-16T06:25:19.793Z,20
2016-04-16T06:26:19.812Z,20
2016-04-16T06:27:19.814Z,20
2016-04-16T06:28:19.800Z,20
2016-04-16T06:29:19.820Z,20
2016-04-16T06:30:32.556Z,20
2016-04-16T06:31:19.809Z,25
2016-04-16T06:32:19.827Z,25
2016-04-16T06:33:19.799Z,25
2016-04-16T06:34:19.817Z,30
2016-04-16T06:35:19.804Z,30
2016-04-16T06:36:19.808Z,30
2016-04-16T06:37:19.700Z,30
2016-04-16T06:38:19.844Z,35
2016-04-16T06:39:19.893Z,35
2016-04-16T06:40:19.896Z,35
2016-04-16T06:41:19.821Z,35
2016-04-16T06:42:19.824Z,35
2016-04-16T06:43:19.827Z,35
2016-04-16T06:44:19.813Z,40
2016-04-16T06:45:26.113Z,40
2016-04-16T06:46:19.803Z,40
2016-04-16T06:47:19.681Z,40
2016-04-16T06:48:19.824Z,40
2016-04-16T06:49:19.389Z,40
2016-04-16T06:50:32.532Z,40
2016-04-16T06:51:19.770Z,45
2016-04-16T06:52:19.835Z,50
2016-04-16T06:53:19.822Z,50
2016-04-16T06:54:19.840Z,55
2016-04-16T06:55:19.828Z,60
2016-04-16T06:56:32.533Z,60
2016-04-16T06:57:19.848Z,60
2016-04-16T06:58:19.820Z,60
2016-04-16T06:59:19.838Z,65
2016-04-16T07:00:19.841Z,70
2016-04-16T07:01:19.812Z,75
2016-04-16T07:02:32.580Z,80
2016-04-16T07:03:32.567Z,80
2016-04-16T07:04:19.695Z,80
2016-04-16T07:05:19.838Z,75
2016-04-16T07:06:20.310Z,80
2016-04-16T07:07:32.594Z,80
2016-04-16T07:08:19.862Z,85
2016-04-16T07:09:19.833Z,85
2016-04-16T07:10:19.804Z,85
2016-04-16T07:11:19.824Z,85
2016-04-16T07:12:19.858Z,85
2016-04-16T07:13:19.828Z,90
2016-04-16T07:14:19.832Z,85
2016-04-16T07:15:19.834Z,75
2016-04-16T07:16:19.665Z,80
2016-04-16T07:17:19.824Z,95
2016-04-16T07:18:19.857Z,100
2016-04-16T07:19:19.845Z,105
2016-04-16T07:20:19.847Z,100
2016-04-16T07:21:19.740Z,85
2016-04-16T07:22:19.853Z,80
2016-04-16T07:23:19.839Z,80
2016-04-16T07:24:32.592Z,75
2016-04-16T07:25:32.611Z,75
2016-04-16T07:26:19.832Z,75
2016-04-16T07:27:19.803Z,65
2016-04-16T07:28:19.837Z,55
2016-04-16T07:29:19.872Z,55
2016-04-16T07:30:19.843Z,55
2016-04-16T07:31:19.878Z,55
2016-04-16T07:32:19.848Z,60
2016-04-16T07:33:19.851Z,65
2016-04-16T07:34:19.869Z,75
2016-04-16T07:35:19.841Z,95
2016-04-16T07:36:32.578Z,105
2016-04-16T07:37:19.846Z,110
2016-04-16T07:38:19.849Z,120
2016-04-16T07:39:19.851Z,125
2016-04-16T07:40:19.854Z,140
2016-04-16T07:41:19.842Z,130
2016-04-16T07:42:19.859Z,120
2016-04-16T07:43:19.862Z,110
2016-04-16T07:44:19.834Z,110
2016-04-16T07:45:19.837Z,110
2016-04-16T07:46:32.574Z,115
2016-04-16T07:47:19.858Z,115
2016-04-16T07:48:19.860Z,125
2016-04-16T07:49:19.863Z,130
2016-04-16T07:50:19.850Z,140
2016-04-16T07:51:19.899Z,165
2016-04-16T07:52:32.606Z,200
2016-04-16T07:53:19.734Z,205
2016-04-16T07:54:19.704Z,215
2016-04-16T07:55:19.864Z,225
2016-04-16T07:56:19.882Z,215
2016-04-16T07:57:19.885Z,170
2016-04-16T07:58:32.621Z,145
2016-04-16T07:59:32.592Z,145
2016-04-16T08:00:19.858Z,135
2016-04-16T08:01:19.846Z,130
2016-04-16T08:02:19.864Z,125
2016-04-16T08:03:19.882Z,125
2016-04-16T08:04:19.869Z,145
2016-04-16T08:05:19.872Z,155
2016-04-16T08:06:32.596Z,140
2016-04-16T08:07:19.861Z,135
2016-04-16T08:08:19.880Z,130
2016-04-16T08:09:19.867Z,120
2016-04-16T08:10:19.902Z,120
2016-04-16T08:11:19.888Z,115
2016-04-16T08:12:32.643Z,110
2016-04-16T08:13:19.877Z,105
2016-04-16T08:14:19.912Z,115
2016-04-16T08:15:19.883Z,105
2016-04-16T08:16:19.745Z,105
2016-04-16T08:17:19.910Z,120
2016-04-16T08:18:32.665Z,115
2016-04-16T08:19:19.915Z,110
2016-04-16T08:20:19.902Z,100
2016-04-16T08:21:19.920Z,95
2016-04-16T08:22:19.922Z,95
2016-04-16T08:23:19.941Z,95
2016-04-16T08:24:19.912Z,95
2016-04-16T08:25:19.946Z,95
2016-04-16T08:26:19.964Z,90
2016-04-16T08:27:19.936Z,90
2016-04-16T08:28:19.923Z,90
2016-04-16T08:29:19.910Z,90
2016-04-16T08:30:19.928Z,85
2016-04-16T08:31:19.931Z,85
2016-04-16T08:32:19.950Z,80
2016-04-16T08:33:19.952Z,75
2016-04-16T08:34:19.939Z,70
2016-04-16T08:35:19.942Z,65
2016-04-16T08:36:19.929Z,65
2016-04-16T08:37:19.947Z,75
2016-04-16T08:38:19.950Z,75
2016-04-16T08:39:19.952Z,75
2016-04-16T08:40:19.940Z,80
2016-04-16T08:41:19.958Z,75
2016-04-16T08:42:19.945Z,85
2016-04-16T08:43:19.948Z,95
2016-04-16T08:44:32.688Z,115
2016-04-16T08:45:19.985Z,115
2016-04-16T08:46:19.941Z,105
2016-04-16T08:47:19.959Z,95
2016-04-16T08:48:19.993Z,105
2016-04-16T08:49:19.979Z,120
2016-04-16T08:50:19.951Z,130
2016-04-16T08:51:19.970Z,130
2016-04-16T08:52:19.957Z,125
2016-04-16T08:53:19.990Z,130
2016-04-16T08:54:20.009Z,120
2016-04-16T08:55:20.012Z,105
2016-04-16T08:56:19.983Z,100
2016-04-16T08:57:19.970Z,95
2016-04-16T08:58:20.019Z,100
2016-04-16T08:59:19.991Z,105
2016-04-16T09:00:19.993Z,105
2016-04-16T09:01:19.981Z,125
2016-04-16T09:02:32.752Z,125
2016-04-16T09:03:20.033Z,135
2016-04-16T09:04:20.005Z,115
2016-04-16T09:05:19.991Z,135
2016-04-16T09:06:19.994Z,135
2016-04-16T09:07:20.028Z,125
2016-04-16T09:08:20.016Z,145
2016-04-16T09:09:20.033Z,145
2016-04-16T09:10:20.052Z,170
2016-04-16T09:11:32.776Z,275
2016-04-16T09:12:20.026Z,290
2016-04-16T09:13:20.013Z,300
2016-04-16T09:14:20.031Z,325
2016-04-16T09:15:20.049Z,315
2016-04-16T09:16:20.037Z,250
2016-04-16T09:17:20.024Z,230
2016-04-16T09:18:20.043Z,175
2016-04-16T09:19:20.044Z,150
2016-04-16T09:20:20.062Z,145
2016-04-16T09:21:20.065Z,155
2016-04-16T09:22:32.805Z,155
2016-04-16T09:23:20.070Z,180
2016-04-16T09:24:20.059Z,185
2016-04-16T09:25:20.061Z,195
2016-04-16T09:26:32.816Z,210
2016-04-16T09:27:32.819Z,215
2016-04-16T09:28:20.069Z,220
2016-04-16T09:29:20.072Z,200
2016-04-16T09:30:20.059Z,165
2016-04-16T09:31:20.062Z,140
2016-04-16T09:32:32.801Z,125
2016-04-16T09:33:20.098Z,125
2016-04-16T09:34:39.291Z,125
2016-04-16T09:35:20.103Z,125
2016-04-16T09:36:20.105Z,120
2016-04-16T09:37:20.077Z,105
2016-04-16T09:38:20.096Z,85
2016-04-16T09:39:20.099Z,70
2016-04-16T09:40:20.102Z,65
2016-04-16T09:41:20.104Z,70
2016-04-16T09:42:20.716Z,55
2016-04-16T09:43:20.124Z,45
2016-04-16T09:44:20.096Z,40
2016-04-16T09:45:20.176Z,45
2016-04-16T09:46:20.117Z,50
2016-04-16T09:47:20.166Z,50
2016-04-16T09:48:20.123Z,55
2016-04-16T09:49:20.109Z,55
2016-04-16T09:50:20.112Z,50
2016-04-16T09:51:20.162Z,45
2016-04-16T09:52:32.871Z,45
2016-04-16T09:53:20.121Z,45
2016-04-16T09:54:20.139Z,45
2016-04-16T09:55:20.173Z,55
2016-04-16T09:56:20.144Z,55
2016-04-16T09:57:20.178Z,50
2016-04-16T09:58:20.165Z,55
2016-04-16T09:59:20.136Z,60
2016-04-16T10:00:32.938Z,55
2016-04-16T10:01:20.188Z,55
2016-04-16T10:02:45.820Z,70
2016-04-16T10:03:20.148Z,75
2016-04-16T10:04:20.150Z,60
2016-04-16T10:05:20.183Z,50
2016-04-16T10:06:20.155Z,40
2016-04-16T10:07:20.142Z,45
2016-04-16T10:08:20.177Z,45
2016-04-16T10:09:20.164Z,45
2016-04-16T10:10:20.166Z,55
2016-04-16T10:11:20.169Z,70
2016-04-16T10:12:20.141Z,75
2016-04-16T10:13:32.911Z,60
2016-04-16T10:14:20.146Z,55
2016-04-16T10:15:20.164Z,50
2016-04-16T10:16:20.183Z,65
2016-04-16T10:17:26.391Z,90
2016-04-16T10:18:20.141Z,80
2016-04-16T10:19:20.143Z,70
2016-04-16T10:20:20.193Z,75
2016-04-16T10:21:20.195Z,80
2016-04-16T10:22:32.904Z,85
2016-04-16T10:23:26.454Z,85
2016-04-16T10:24:20.126Z,85
2016-04-16T10:25:20.160Z,70
2016-04-16T10:26:20.162Z,80
2016-04-16T10:27:20.149Z,85
2016-04-16T10:28:32.889Z,95
2016-04-16T10:29:20.154Z,90
2016-04-16T10:30:20.141Z,85
2016-04-16T10:31:20.144Z,75
2016-04-16T10:32:20.147Z,60
2016-04-16T10:33:20.134Z,55
2016-04-16T10:34:20.167Z,70
2016-04-16T10:35:32.892Z,85
2016-04-16T10:36:20.158Z,95
2016-04-16T10:37:20.161Z,120
2016-04-16T10:38:20.148Z,150
2016-04-16T10:39:20.150Z,170
2016-04-16T10:40:20.138Z,175
2016-04-16T10:41:32.908Z,155
2016-04-16T10:42:20.143Z,155
2016-04-16T10:43:20.130Z,110
2016-04-16T10:44:20.117Z,90
2016-04-16T10:45:20.151Z,85
2016-04-16T10:46:20.154Z,70
2016-04-16T10:47:20.141Z,55
2016-04-16T10:48:20.143Z,55
2016-04-16T10:49:20.146Z,65
2016-04-16T10:50:20.132Z,75
2016-04-16T10:51:20.167Z,90
2016-04-16T10:52:20.309Z,110
2016-04-16T10:53:32.862Z,90
2016-04-16T10:54:20.159Z,70
2016-04-16T10:55:20.131Z,60
2016-04-16T10:56:20.133Z,60
2016-04-16T10:57:32.873Z,115
2016-04-16T10:58:20.154Z,115
2016-04-16T10:59:20.126Z,100
2016-04-16T11:00:20.160Z,95
2016-04-16T11:01:20.195Z,95
2016-04-16T11:02:32.918Z,90
2016-04-16T11:03:20.153Z,95
2016-04-16T11:04:20.139Z,135
2016-04-16T11:05:20.189Z,185
2016-04-16T11:06:20.144Z,225
2016-04-16T11:07:19.975Z,250
2016-04-16T11:08:20.150Z,225
2016-04-16T11:09:20.122Z,205
2016-04-16T11:10:20.172Z,200
2016-04-16T11:11:20.158Z,215
2016-04-16T11:12:32.882Z,235
2016-04-16T11:13:20.132Z,250
2016-04-16T11:14:20.135Z,290
2016-04-16T11:15:20.168Z,325
2016-04-16T11:16:20.155Z,295
2016-04-16T11:17:20.158Z,250
2016-04-16T11:18:20.146Z,220
2016-04-16T11:19:20.179Z,195
2016-04-16T11:20:20.135Z,180
2016-04-16T11:21:20.169Z,165
2016-04-16T11:22:20.094Z,115
2016-04-16T11:23:20.143Z,90
2016-04-16T11:24:20.146Z,80
2016-04-16T11:25:20.180Z,80
2016-04-16T11:26:20.136Z,65
2016-04-16T11:27:20.154Z,55
2016-04-16T11:28:20.157Z,50
2016-04-16T11:29:19.409Z,50
2016-04-16T11:30:20.162Z,55
2016-04-16T11:31:32.918Z,80
2016-04-16T11:32:20.168Z,90
2016-04-16T11:33:20.217Z,110
2016-04-16T11:34:20.142Z,115
2016-04-16T11:35:20.145Z,100
2016-04-16T11:36:32.916Z,85
2016-04-16T11:37:20.103Z,85
2016-04-16T11:38:20.184Z,75
2016-04-16T11:39:20.139Z,80
2016-04-16T11:40:20.158Z,80
2016-04-16T11:41:20.161Z,75
2016-04-16T11:42:20.194Z,75
2016-04-16T11:43:20.182Z,75
2016-04-16T11:44:20.185Z,80
2016-04-16T11:45:20.171Z,90
2016-04-16T11:46:20.158Z,105
2016-04-16T11:47:20.146Z,105
2016-04-16T11:48:33.119Z,100
2016-04-16T11:49:20.166Z,125
2016-04-16T11:50:20.138Z,185
2016-04-16T11:51:20.200Z,255
2016-04-16T11:52:20.465Z,265
2016-04-16T11:53:20.887Z,245
2016-04-16T11:54:20.324Z,230
2016-04-16T11:55:20.402Z,235
2016-04-16T11:56:20.438Z,260
2016-04-16T11:57:20.425Z,290
2016-04-16T11:58:20.458Z,295
2016-04-16T11:59:20.462Z,300
2016-04-16T12:00:33.191Z,300
2016-04-16T12:01:20.472Z,285
2016-04-16T12:02:20.498Z,265
2016-04-16T12:03:20.537Z,250
2016-04-16T12:04:23.498Z,235
2016-04-16T12:05:33.245Z,230
2016-04-16T12:06:20.511Z,220
2016-04-16T12:07:20.594Z,220
2016-04-16T12:08:20.522Z,225
2016-04-16T12:09:20.510Z,220
2016-04-16T12:10:20.548Z,220
2016-04-16T12:11:33.242Z,235
2016-04-16T12:12:20.555Z,260
2016-04-16T12:13:20.511Z,275
2016-04-16T12:14:20.545Z,275
2016-04-16T12:15:23.580Z,300
2016-04-16T12:16:20.521Z,315
2016-04-16T12:17:20.524Z,305
2016-04-16T12:18:20.543Z,310
2016-04-16T12:19:20.514Z,305
2016-04-16T12:20:20.534Z,305
2016-04-16T12:21:33.273Z,295
2016-04-16T12:22:20.476Z,285
2016-04-16T12:23:20.510Z,260
2016-04-16T12:24:20.513Z,240
2016-04-16T12:25:20.547Z,225
2016-04-16T12:26:20.534Z,235
2016-04-16T12:27:20.552Z,235
2016-04-16T12:28:33.261Z,235
2016-04-16T12:29:20.558Z,225
2016-04-16T12:30:20.529Z,225
2016-04-16T12:31:20.532Z,230
2016-04-16T12:32:20.550Z,230
2016-04-16T12:33:20.569Z,235
2016-04-16T12:34:33.651Z,270
2016-04-16T12:35:20.542Z,300
2016-04-16T12:36:20.561Z,340
2016-04-16T12:37:20.985Z,390
2016-04-16T12:38:20.551Z,360
2016-04-16T12:39:33.306Z,335
2016-04-16T12:40:20.587Z,320
2016-04-16T12:41:20.590Z,315
2016-04-16T12:42:20.546Z,305
2016-04-16T12:43:20.579Z,300
2016-04-16T12:44:20.567Z,300
2016-04-16T12:45:20.570Z,280
2016-04-16T12:46:20.556Z,260
2016-04-16T12:47:33.327Z,280
2016-04-16T12:48:20.608Z,315
2016-04-16T12:49:20.612Z,335
2016-04-16T12:50:20.583Z,325
2016-04-16T12:51:20.617Z,320
2016-04-16T12:52:20.620Z,330
2016-04-16T12:53:20.606Z,330
2016-04-16T12:54:33.361Z,315
2016-04-16T12:55:20.658Z,325
2016-04-16T12:56:20.599Z,330
2016-04-16T12:57:20.586Z,330
2016-04-16T12:58:20.635Z,320
2016-04-16T12:59:20.622Z,305
2016-04-16T13:00:20.672Z,280
2016-04-16T13:01:20.675Z,275
2016-04-16T13:02:20.646Z,280
2016-04-16T13:03:33.385Z,285
2016-04-16T13:04:20.666Z,290
2016-04-16T13:05:20.638Z,290
2016-04-16T13:06:20.626Z,290
2016-04-16T13:07:20.629Z,285
2016-04-16T13:08:33.384Z,280
2016-04-16T13:09:20.665Z,280
2016-04-16T13:10:20.683Z,280
2016-04-16T13:11:20.639Z,290
2016-04-16T13:12:20.704Z,290
2016-04-16T13:13:20.660Z,280
2016-04-16T13:14:20.662Z,265
2016-04-16T13:15:20.651Z,255
2016-04-16T13:16:20.715Z,250
2016-04-16T13:17:20.686Z,250
2016-04-16T13:18:20.673Z,265
2016-04-16T13:19:20.707Z,275
2016-04-16T13:20:20.679Z,275
2016-04-16T13:21:20.682Z,275
2016-04-16T13:22:20.872Z,285
2016-04-16T13:23:20.750Z,300
2016-04-16T13:24:20.737Z,335
2016-04-16T13:25:20.755Z,335
2016-04-16T13:26:20.726Z,325
2016-04-16T13:27:20.714Z,320
2016-04-16T13:28:20.700Z,310
2016-04-16T13:29:20.750Z,315
2016-04-16T13:30:20.752Z,265
2016-04-16T13:31:20.724Z,240
2016-04-16T13:32:20.742Z,235
2016-04-16T13:33:20.619Z,235
2016-04-16T13:34:20.732Z,225
2016-04-16T13:35:20.750Z,230
2016-04-16T13:36:20.738Z,215
2016-04-16T13:37:20.772Z,215
2016-04-16T13:38:20.649Z,235
2016-04-16T13:39:20.746Z,255
2016-04-16T13:40:20.763Z,270
2016-04-16T13:41:20.766Z,255
2016-04-16T13:42:20.613Z,245
2016-04-16T13:43:20.756Z,230
2016-04-16T13:44:20.791Z,220
2016-04-16T13:45:20.793Z,220
2016-04-16T13:46:20.780Z,225
2016-04-16T13:47:20.768Z,235
2016-04-16T13:48:20.770Z,225
2016-04-16T13:49:20.788Z,210
2016-04-16T13:50:20.759Z,240
2016-04-16T13:51:20.809Z,255
2016-04-16T13:52:20.780Z,270
2016-04-16T13:53:20.798Z,280
2016-04-16T13:54:20.817Z,275
2016-04-16T13:55:20.803Z,285
2016-04-16T13:56:20.806Z,315
2016-04-16T13:57:27.106Z,365
2016-04-16T13:58:20.797Z,375
2016-04-16T13:59:20.800Z,350
2016-04-16T14:00:20.833Z,320
2016-04-16T14:01:33.542Z,295
2016-04-16T14:02:20.792Z,280
2016-04-16T14:03:20.841Z,260
2016-04-16T14:04:20.813Z,255
2016-04-16T14:05:20.830Z,260
2016-04-16T14:06:20.802Z,265
2016-04-16T14:07:20.852Z,270
2016-04-16T14:08:20.839Z,280
2016-04-16T14:09:20.826Z,295
2016-04-16T14:10:20.860Z,300
2016-04-16T14:11:20.847Z,315
2016-04-16T14:12:20.678Z,325
2016-04-16T14:13:20.821Z,315
2016-04-16T14:14:20.886Z,295
2016-04-16T14:15:20.842Z,280
2016-04-16T14:16:20.704Z,255